sensor_id;sensor_type;location;lat;lon;timestamp;temperature;humidity
56123;DHT22;42426;46.104;19.656;2023-04-24T00:00:14;409.90;1945.60
56123;DHT22;42426;46.104;19.656;2023-04-24T00:02:43;409.90;1945.60
56123;DHT22;42426;46.104;19.656;2023-04-24T00:05:14;409.90;1945.60
56123;DHT22;42426;46.104;19.656;2023-04-24T00:07:41;409.80;1971.20
56123;DHT22;42426;46.104;19.656;2023-04-24T00:10:07;409.80;1971.20
56123;DHT22;42426;46.104;19.656;2023-04-24T00:12:34;409.80;1971.20
56123;DHT22;42426;46.104;19.656;2023-04-24T00:15:00;409.70;1971.20
56123;DHT22;42426;46.104;19.656;2023-04-24T00:17:26;409.70;1996.80
56123;DHT22;42426;46.104;19.656;2023-04-24T00:19:52;409.70;1996.80
56123;DHT22;42426;46.104;19.656;2023-04-24T00:22:25;409.70;1996.80
56123;DHT22;42426;46.104;19.656;2023-04-24T00:24:51;409.60;2022.40
56123;DHT22;42426;46.104;19.656;2023-04-24T00:27:19;409.60;2022.40
56123;DHT22;42426;46.104;19.656;2023-04-24T00:29:45;409.60;2022.40
56123;DHT22;42426;46.104;19.656;2023-04-24T00:32:12;409.60;2022.40
56123;DHT22;42426;46.104;19.656;2023-04-24T00:34:38;409.60;2022.40
56123;DHT22;42426;46.104;19.656;2023-04-24T00:37:03;384.90;1996.80
56123;DHT22;42426;46.104;19.656;2023-04-24T00:39:30;384.90;1996.80
56123;DHT22;42426;46.104;19.656;2023-04-24T00:41:56;384.90;1996.80
56123;DHT22;42426;46.104;19.656;2023-04-24T00:44:23;384.90;1996.80
56123;DHT22;42426;46.104;19.656;2023-04-24T01:01:31;409.70;2099.20
56123;DHT22;42426;46.104;19.656;2023-04-24T01:06:28;409.60;2022.40
56123;DHT22;42426;46.104;19.656;2023-04-24T01:08:54;384.70;2022.40
56123;DHT22;42426;46.104;19.656;2023-04-24T01:11:24;384.70;1996.80
56123;DHT22;42426;46.104;19.656;2023-04-24T01:13:50;384.60;2022.40
56123;DHT22;42426;46.104;19.656;2023-04-24T01:16:16;384.60;2022.40
56123;DHT22;42426;46.104;19.656;2023-04-24T01:18:43;384.60;2022.40
56123;DHT22;42426;46.104;19.656;2023-04-24T01:21:13;384.50;2048.00
56123;DHT22;42426;46.104;19.656;2023-04-24T01:23:40;384.40;2048.00
56123;DHT22;42426;46.104;19.656;2023-04-24T01:26:06;384.40;2048.00
56123;DHT22;42426;46.104;19.656;2023-04-24T01:28:32;384.40;2048.00
56123;DHT22;42426;46.104;19.656;2023-04-24T01:30:58;384.40;2073.60
56123;DHT22;42426;46.104;19.656;2023-04-24T01:33:25;384.40;2073.60
56123;DHT22;42426;46.104;19.656;2023-04-24T01:35:51;384.40;2073.60
56123;DHT22;42426;46.104;19.656;2023-04-24T01:38:17;384.40;2073.60
56123;DHT22;42426;46.104;19.656;2023-04-24T01:40:43;384.30;2099.20
56123;DHT22;42426;46.104;19.656;2023-04-24T01:43:09;384.30;2099.20
56123;DHT22;42426;46.104;19.656;2023-04-24T01:45:35;384.20;2124.80
56123;DHT22;42426;46.104;19.656;2023-04-24T01:48:00;384.20;2099.20
56123;DHT22;42426;46.104;19.656;2023-04-24T01:50:26;384.10;2099.20
56123;DHT22;42426;46.104;19.656;2023-04-24T02:10:01;384.30;2150.40
56123;DHT22;42426;46.104;19.656;2023-04-24T02:12:27;384.20;2201.60
56123;DHT22;42426;46.104;19.656;2023-04-24T02:14:52;384.00;2150.40
56123;DHT22;42426;46.104;19.656;2023-04-24T02:17:18;384.00;2176.00
56123;DHT22;42426;46.104;19.656;2023-04-24T02:19:45;359.30;2176.00
56123;DHT22;42426;46.104;19.656;2023-04-24T02:22:11;359.30;2176.00
56123;DHT22;42426;46.104;19.656;2023-04-24T02:24:38;359.30;2176.00
56123;DHT22;42426;46.104;19.656;2023-04-24T02:27:03;359.30;2176.00
56123;DHT22;42426;46.104;19.656;2023-04-24T02:29:30;359.20;2176.00
56123;DHT22;42426;46.104;19.656;2023-04-24T02:31:56;384.00;2227.20
56123;DHT22;42426;46.104;19.656;2023-04-24T02:34:23;359.20;2201.60
56123;DHT22;42426;46.104;19.656;2023-04-24T02:36:50;359.10;2176.00
56123;DHT22;42426;46.104;19.656;2023-04-24T02:39:16;359.10;2176.00
56123;DHT22;42426;46.104;19.656;2023-04-24T02:41:42;359.10;2176.00
56123;DHT22;42426;46.104;19.656;2023-04-24T02:44:08;359.10;2176.00
56123;DHT22;42426;46.104;19.656;2023-04-24T02:46:35;359.00;2201.60
56123;DHT22;42426;46.104;19.656;2023-04-24T02:49:01;359.00;2201.60
56123;DHT22;42426;46.104;19.656;2023-04-24T02:51:26;359.00;2201.60
56123;DHT22;42426;46.104;19.656;2023-04-24T02:53:52;359.00;2201.60
56123;DHT22;42426;46.104;19.656;2023-04-24T02:56:18;359.00;2201.60
56123;DHT22;42426;46.104;19.656;2023-04-24T02:58:44;358.90;2201.60
56123;DHT22;42426;46.104;19.656;2023-04-24T03:01:10;358.90;2201.60
56123;DHT22;42426;46.104;19.656;2023-04-24T03:03:37;358.90;2201.60
56123;DHT22;42426;46.104;19.656;2023-04-24T03:06:03;358.90;2201.60
56123;DHT22;42426;46.104;19.656;2023-04-24T03:08:34;358.90;2201.60
56123;DHT22;42426;46.104;19.656;2023-04-24T03:11:00;358.80;2227.20
56123;DHT22;42426;46.104;19.656;2023-04-24T03:13:26;358.80;2227.20
56123;DHT22;42426;46.104;19.656;2023-04-24T03:15:53;358.80;2227.20
56123;DHT22;42426;46.104;19.656;2023-04-24T03:18:19;358.80;2227.20
56123;DHT22;42426;46.104;19.656;2023-04-24T03:20:50;358.70;2227.20
56123;DHT22;42426;46.104;19.656;2023-04-24T03:23:16;358.80;2227.20
56123;DHT22;42426;46.104;19.656;2023-04-24T03:25:41;358.70;2227.20
56123;DHT22;42426;46.104;19.656;2023-04-24T03:28:09;358.70;2227.20
56123;DHT22;42426;46.104;19.656;2023-04-24T03:30:35;358.70;2252.80
56123;DHT22;42426;46.104;19.656;2023-04-24T03:33:00;358.70;2227.20
56123;DHT22;42426;46.104;19.656;2023-04-24T03:35:26;358.60;2227.20
56123;DHT22;42426;46.104;19.656;2023-04-24T03:37:52;358.70;2227.20
56123;DHT22;42426;46.104;19.656;2023-04-24T03:40:18;358.70;2227.20
56123;DHT22;42426;46.104;19.656;2023-04-24T03:42:43;358.60;2227.20
56123;DHT22;42426;46.104;19.656;2023-04-24T03:45:10;358.50;2252.80
56123;DHT22;42426;46.104;19.656;2023-04-24T03:47:35;358.60;2252.80
56123;DHT22;42426;46.104;19.656;2023-04-24T03:50:01;358.60;2227.20
56123;DHT22;42426;46.104;19.656;2023-04-24T03:52:27;358.70;2227.20
56123;DHT22;42426;46.104;19.656;2023-04-24T03:54:53;358.60;2227.20
56123;DHT22;42426;46.104;19.656;2023-04-24T03:57:19;358.70;2227.20
56123;DHT22;42426;46.104;19.656;2023-04-24T03:59:45;358.70;2227.20
56123;DHT22;42426;46.104;19.656;2023-04-24T04:02:11;358.70;2227.20
56123;DHT22;42426;46.104;19.656;2023-04-24T04:04:37;358.60;2227.20
56123;DHT22;42426;46.104;19.656;2023-04-24T04:07:03;358.60;2227.20
56123;DHT22;42426;46.104;19.656;2023-04-24T04:09:29;358.60;2252.80
56123;DHT22;42426;46.104;19.656;2023-04-24T04:11:55;358.50;2252.80
56123;DHT22;42426;46.104;19.656;2023-04-24T04:14:22;358.50;2252.80
56123;DHT22;42426;46.104;19.656;2023-04-24T04:16:50;358.50;2252.80
56123;DHT22;42426;46.104;19.656;2023-04-24T04:19:16;358.50;2252.80
56123;DHT22;42426;46.104;19.656;2023-04-24T04:21:42;358.60;2252.80
56123;DHT22;42426;46.104;19.656;2023-04-24T04:24:08;358.60;2252.80
56123;DHT22;42426;46.104;19.656;2023-04-24T04:26:35;358.60;2252.80
56123;DHT22;42426;46.104;19.656;2023-04-24T04:29:00;358.60;2252.80
56123;DHT22;42426;46.104;19.656;2023-04-24T04:31:26;358.60;2252.80
56123;DHT22;42426;46.104;19.656;2023-04-24T04:33:52;358.60;2252.80
56123;DHT22;42426;46.104;19.656;2023-04-24T04:36:20;358.60;2252.80
56123;DHT22;42426;46.104;19.656;2023-04-24T04:38:45;358.60;2252.80
56123;DHT22;42426;46.104;19.656;2023-04-24T04:41:13;358.60;2252.80
56123;DHT22;42426;46.104;19.656;2023-04-24T04:43:39;358.60;2278.40
56123;DHT22;42426;46.104;19.656;2023-04-24T04:46:06;358.60;2278.40
56123;DHT22;42426;46.104;19.656;2023-04-24T04:48:34;358.60;2278.40
56123;DHT22;42426;46.104;19.656;2023-04-24T04:50:59;358.60;2278.40
56123;DHT22;42426;46.104;19.656;2023-04-24T04:53:25;358.60;2278.40
56123;DHT22;42426;46.104;19.656;2023-04-24T04:55:52;358.50;2304.00
56123;DHT22;42426;46.104;19.656;2023-04-24T04:58:18;358.50;2304.00
56123;DHT22;42426;46.104;19.656;2023-04-24T05:00:45;358.50;2329.60
56123;DHT22;42426;46.104;19.656;2023-04-24T05:03:11;358.50;2329.60
56123;DHT22;42426;46.104;19.656;2023-04-24T05:05:37;358.50;2329.60
56123;DHT22;42426;46.104;19.656;2023-04-24T05:08:07;358.50;2329.60
56123;DHT22;42426;46.104;19.656;2023-04-24T05:10:33;358.50;2329.60
56123;DHT22;42426;46.104;19.656;2023-04-24T05:12:58;358.50;2329.60
56123;DHT22;42426;46.104;19.656;2023-04-24T05:15:24;358.50;2329.60
56123;DHT22;42426;46.104;19.656;2023-04-24T05:17:50;358.40;2329.60
56123;DHT22;42426;46.104;19.656;2023-04-24T05:20:16;358.50;2329.60
56123;DHT22;42426;46.104;19.656;2023-04-24T05:22:42;358.50;2329.60
56123;DHT22;42426;46.104;19.656;2023-04-24T05:25:08;358.60;2329.60
56123;DHT22;42426;46.104;19.656;2023-04-24T05:27:34;358.60;2329.60
56123;DHT22;42426;46.104;19.656;2023-04-24T05:29:59;358.60;2329.60
56123;DHT22;42426;46.104;19.656;2023-04-24T05:32:25;358.60;2329.60
56123;DHT22;42426;46.104;19.656;2023-04-24T05:34:53;358.70;2329.60
56123;DHT22;42426;46.104;19.656;2023-04-24T05:37:19;358.70;2329.60
56123;DHT22;42426;46.104;19.656;2023-04-24T05:39:45;358.80;2329.60
56123;DHT22;42426;46.104;19.656;2023-04-24T05:42:10;358.80;2329.60
56123;DHT22;42426;46.104;19.656;2023-04-24T05:44:36;358.80;2329.60
56123;DHT22;42426;46.104;19.656;2023-04-24T05:47:02;358.80;2329.60
56123;DHT22;42426;46.104;19.656;2023-04-24T05:49:28;358.80;2329.60
56123;DHT22;42426;46.104;19.656;2023-04-24T05:51:54;358.80;2329.60
56123;DHT22;42426;46.104;19.656;2023-04-24T05:54:21;358.90;2329.60
56123;DHT22;42426;46.104;19.656;2023-04-24T05:56:49;358.90;2329.60
56123;DHT22;42426;46.104;19.656;2023-04-24T05:59:15;358.90;2329.60
56123;DHT22;42426;46.104;19.656;2023-04-24T06:01:41;358.90;2329.60
56123;DHT22;42426;46.104;19.656;2023-04-24T06:04:07;358.90;2329.60
56123;DHT22;42426;46.104;19.656;2023-04-24T06:06:33;358.80;2329.60
56123;DHT22;42426;46.104;19.656;2023-04-24T06:09:00;358.80;2329.60
56123;DHT22;42426;46.104;19.656;2023-04-24T06:11:26;358.80;2329.60
56123;DHT22;42426;46.104;19.656;2023-04-24T06:13:51;358.80;2329.60
56123;DHT22;42426;46.104;19.656;2023-04-24T06:16:17;358.80;2329.60
56123;DHT22;42426;46.104;19.656;2023-04-24T06:18:43;358.80;2329.60
56123;DHT22;42426;46.104;19.656;2023-04-24T06:21:10;358.80;2329.60
56123;DHT22;42426;46.104;19.656;2023-04-24T06:23:35;358.80;2329.60
56123;DHT22;42426;46.104;19.656;2023-04-24T06:26:02;358.80;2329.60
56123;DHT22;42426;46.104;19.656;2023-04-24T06:28:28;358.80;2329.60
56123;DHT22;42426;46.104;19.656;2023-04-24T06:30:54;358.70;2329.60
56123;DHT22;42426;46.104;19.656;2023-04-24T06:33:20;358.80;2329.60
56123;DHT22;42426;46.104;19.656;2023-04-24T06:35:45;358.80;2329.60
56123;DHT22;42426;46.104;19.656;2023-04-24T06:38:11;358.90;2329.60
56123;DHT22;42426;46.104;19.656;2023-04-24T06:40:38;358.90;2329.60
56123;DHT22;42426;46.104;19.656;2023-04-24T06:43:04;358.90;2329.60
56123;DHT22;42426;46.104;19.656;2023-04-24T06:45:30;359.00;2329.60
56123;DHT22;42426;46.104;19.656;2023-04-24T06:47:56;359.10;2329.60
56123;DHT22;42426;46.104;19.656;2023-04-24T06:50:22;359.10;2329.60
56123;DHT22;42426;46.104;19.656;2023-04-24T06:52:48;359.20;2329.60
56123;DHT22;42426;46.104;19.656;2023-04-24T06:55:15;359.20;2329.60
56123;DHT22;42426;46.104;19.656;2023-04-24T06:57:45;359.20;2329.60
56123;DHT22;42426;46.104;19.656;2023-04-24T07:00:11;384.00;2329.60
56123;DHT22;42426;46.104;19.656;2023-04-24T07:02:37;384.00;2329.60
56123;DHT22;42426;46.104;19.656;2023-04-24T07:05:04;384.00;2329.60
56123;DHT22;42426;46.104;19.656;2023-04-24T07:07:30;384.10;2329.60
56123;DHT22;42426;46.104;19.656;2023-04-24T07:09:56;384.40;2329.60
56123;DHT22;42426;46.104;19.656;2023-04-24T07:12:23;384.30;2329.60
56123;DHT22;42426;46.104;19.656;2023-04-24T07:14:49;384.30;2329.60
56123;DHT22;42426;46.104;19.656;2023-04-24T07:17:15;384.50;2329.60
56123;DHT22;42426;46.104;19.656;2023-04-24T07:19:41;384.30;2329.60
56123;DHT22;42426;46.104;19.656;2023-04-24T07:22:07;384.30;2329.60
56123;DHT22;42426;46.104;19.656;2023-04-24T07:24:33;384.30;2329.60
56123;DHT22;42426;46.104;19.656;2023-04-24T07:26:59;384.40;2329.60
56123;DHT22;42426;46.104;19.656;2023-04-24T07:29:27;384.30;2329.60
56123;DHT22;42426;46.104;19.656;2023-04-24T07:31:53;384.30;2329.60
56123;DHT22;42426;46.104;19.656;2023-04-24T07:34:19;384.40;2329.60
56123;DHT22;42426;46.104;19.656;2023-04-24T07:36:50;384.50;2329.60
56123;DHT22;42426;46.104;19.656;2023-04-24T07:39:18;384.60;2329.60
56123;DHT22;42426;46.104;19.656;2023-04-24T07:41:44;384.80;2329.60
56123;DHT22;42426;46.104;19.656;2023-04-24T07:44:09;384.80;2329.60
56123;DHT22;42426;46.104;19.656;2023-04-24T07:46:35;384.80;2329.60
56123;DHT22;42426;46.104;19.656;2023-04-24T07:49:01;409.70;2355.20
56123;DHT22;42426;46.104;19.656;2023-04-24T07:51:27;409.80;2355.20
56123;DHT22;42426;46.104;19.656;2023-04-24T07:53:53;409.60;2355.20
56123;DHT22;42426;46.104;19.656;2023-04-24T07:56:22;409.70;2355.20
56123;DHT22;42426;46.104;19.656;2023-04-24T07:58:49;409.80;2355.20
56123;DHT22;42426;46.104;19.656;2023-04-24T08:01:17;409.90;2355.20
56123;DHT22;42426;46.104;19.656;2023-04-24T09:50:31;410.50;2355.20
56123;DHT22;42426;46.104;19.656;2023-04-24T09:53:04;410.30;2355.20
56123;DHT22;42426;46.104;19.656;2023-04-24T09:55:31;410.20;2355.20
56123;DHT22;42426;46.104;19.656;2023-04-24T09:58:01;410.10;2355.20
56123;DHT22;42426;46.104;19.656;2023-04-24T10:00:32;410.00;2355.20
56123;DHT22;42426;46.104;19.656;2023-04-24T10:03:05;409.90;2355.20
56123;DHT22;42426;46.104;19.656;2023-04-24T10:05:32;409.90;2355.20
56123;DHT22;42426;46.104;19.656;2023-04-24T10:10:30;409.70;2355.20
56123;DHT22;42426;46.104;19.656;2023-04-24T10:12:59;409.70;2355.20
56123;DHT22;42426;46.104;19.656;2023-04-24T10:15:26;409.60;2355.20
56123;DHT22;42426;46.104;19.656;2023-04-24T10:17:52;409.60;2355.20
56123;DHT22;42426;46.104;19.656;2023-04-24T10:20:24;409.60;2355.20
56123;DHT22;42426;46.104;19.656;2023-04-24T10:22:52;409.60;2355.20
56123;DHT22;42426;46.104;19.656;2023-04-24T10:25:20;409.70;2355.20
56123;DHT22;42426;46.104;19.656;2023-04-24T10:27:47;409.70;2355.20
56123;DHT22;42426;46.104;19.656;2023-04-24T10:30:14;409.70;2355.20
56123;DHT22;42426;46.104;19.656;2023-04-24T10:32:40;409.80;2355.20
56123;DHT22;42426;46.104;19.656;2023-04-24T10:35:07;409.80;2355.20
56123;DHT22;42426;46.104;19.656;2023-04-24T10:37:39;409.80;2355.20
56123;DHT22;42426;46.104;19.656;2023-04-24T10:40:08;409.90;2355.20
56123;DHT22;42426;46.104;19.656;2023-04-24T10:42:34;409.90;2355.20
56123;DHT22;42426;46.104;19.656;2023-04-24T10:45:06;409.90;2355.20
56123;DHT22;42426;46.104;19.656;2023-04-24T10:47:40;409.90;2355.20
56123;DHT22;42426;46.104;19.656;2023-04-24T10:50:10;410.00;2355.20
56123;DHT22;42426;46.104;19.656;2023-04-24T10:52:49;410.10;2355.20
56123;DHT22;42426;46.104;19.656;2023-04-24T10:55:40;410.10;2355.20
56123;DHT22;42426;46.104;19.656;2023-04-24T10:58:06;410.10;2355.20
56123;DHT22;42426;46.104;19.656;2023-04-24T11:00:32;410.10;2355.20
56123;DHT22;42426;46.104;19.656;2023-04-24T11:02:58;410.10;2355.20
56123;DHT22;42426;46.104;19.656;2023-04-24T11:05:50;410.10;2355.20
56123;DHT22;42426;46.104;19.656;2023-04-24T11:08:28;410.20;2355.20
56123;DHT22;42426;46.104;19.656;2023-04-24T11:24:38;410.40;2355.20
56123;DHT22;42426;46.104;19.656;2023-04-24T11:29:53;410.40;2355.20
56123;DHT22;42426;46.104;19.656;2023-04-24T11:35:06;435.20;2355.20
56123;DHT22;42426;46.104;19.656;2023-04-24T11:37:40;435.20;2355.20
56123;DHT22;42426;46.104;19.656;2023-04-24T11:40:11;435.20;2355.20
56123;DHT22;42426;46.104;19.656;2023-04-24T11:42:41;435.40;2355.20
56123;DHT22;42426;46.104;19.656;2023-04-24T11:45:11;435.40;2355.20
56123;DHT22;42426;46.104;19.656;2023-04-24T11:47:41;435.50;2355.20
56123;DHT22;42426;46.104;19.656;2023-04-24T11:50:12;435.50;2355.20
56123;DHT22;42426;46.104;19.656;2023-04-24T11:52:40;435.50;2355.20
56123;DHT22;42426;46.104;19.656;2023-04-24T11:57:50;435.50;2355.20
56123;DHT22;42426;46.104;19.656;2023-04-24T12:00:28;435.50;2355.20
56123;DHT22;42426;46.104;19.656;2023-04-24T12:03:10;435.50;2355.20
56123;DHT22;42426;46.104;19.656;2023-04-24T12:05:37;435.40;2355.20
56123;DHT22;42426;46.104;19.656;2023-04-24T12:08:04;435.30;2355.20
56123;DHT22;42426;46.104;19.656;2023-04-24T12:10:32;435.30;2355.20
56123;DHT22;42426;46.104;19.656;2023-04-24T12:12:59;435.30;2355.20
56123;DHT22;42426;46.104;19.656;2023-04-24T12:15:26;435.20;2355.20
56123;DHT22;42426;46.104;19.656;2023-04-24T12:17:53;435.20;2355.20
56123;DHT22;42426;46.104;19.656;2023-04-24T12:20:35;435.20;2355.20
56123;DHT22;42426;46.104;19.656;2023-04-24T12:23:01;435.20;2355.20
56123;DHT22;42426;46.104;19.656;2023-04-24T12:27:55;435.30;2355.20
56123;DHT22;42426;46.104;19.656;2023-04-24T12:30:27;435.30;2355.20
56123;DHT22;42426;46.104;19.656;2023-04-24T12:32:58;435.30;2355.20
56123;DHT22;42426;46.104;19.656;2023-04-24T12:35:28;435.30;2355.20
56123;DHT22;42426;46.104;19.656;2023-04-24T12:37:54;435.30;2355.20
56123;DHT22;42426;46.104;19.656;2023-04-24T12:40:21;435.30;2355.20
56123;DHT22;42426;46.104;19.656;2023-04-24T12:42:51;435.30;2355.20
56123;DHT22;42426;46.104;19.656;2023-04-24T12:45:18;435.30;2355.20
56123;DHT22;42426;46.104;19.656;2023-04-24T12:47:45;435.30;2355.20
56123;DHT22;42426;46.104;19.656;2023-04-24T12:50:13;435.30;2355.20
56123;DHT22;42426;46.104;19.656;2023-04-24T12:52:40;435.30;2355.20
56123;DHT22;42426;46.104;19.656;2023-04-24T12:55:07;435.30;2355.20
56123;DHT22;42426;46.104;19.656;2023-04-24T12:57:34;435.20;2355.20
56123;DHT22;42426;46.104;19.656;2023-04-24T13:00:00;435.20;2355.20
56123;DHT22;42426;46.104;19.656;2023-04-24T13:02:30;435.20;2355.20
56123;DHT22;42426;46.104;19.656;2023-04-24T13:04:57;435.20;2355.20
56123;DHT22;42426;46.104;19.656;2023-04-24T13:07:23;435.20;2355.20
56123;DHT22;42426;46.104;19.656;2023-04-24T13:09:51;435.20;2355.20
56123;DHT22;42426;46.104;19.656;2023-04-24T13:12:16;435.20;2355.20
56123;DHT22;42426;46.104;19.656;2023-04-24T13:14:42;435.30;2355.20
56123;DHT22;42426;46.104;19.656;2023-04-24T13:17:08;435.30;2355.20
56123;DHT22;42426;46.104;19.656;2023-04-24T13:19:40;435.30;2355.20
56123;DHT22;42426;46.104;19.656;2023-04-24T13:22:08;435.30;2355.20
56123;DHT22;42426;46.104;19.656;2023-04-24T13:24:34;435.30;2355.20
56123;DHT22;42426;46.104;19.656;2023-04-24T13:27:00;435.30;2355.20
56123;DHT22;42426;46.104;19.656;2023-04-24T13:29:26;435.30;2355.20
56123;DHT22;42426;46.104;19.656;2023-04-24T13:31:54;435.30;2355.20
56123;DHT22;42426;46.104;19.656;2023-04-24T13:34:25;435.30;2355.20
56123;DHT22;42426;46.104;19.656;2023-04-24T13:36:53;435.30;2355.20
56123;DHT22;42426;46.104;19.656;2023-04-24T13:39:19;435.30;2355.20
56123;DHT22;42426;46.104;19.656;2023-04-24T13:41:48;435.20;2355.20
56123;DHT22;42426;46.104;19.656;2023-04-24T13:44:18;435.20;2355.20
56123;DHT22;42426;46.104;19.656;2023-04-24T13:46:45;435.20;2355.20
56123;DHT22;42426;46.104;19.656;2023-04-24T13:49:13;435.20;2355.20
56123;DHT22;42426;46.104;19.656;2023-04-24T13:51:39;435.20;2355.20
56123;DHT22;42426;46.104;19.656;2023-04-24T13:54:05;435.20;2355.20
56123;DHT22;42426;46.104;19.656;2023-04-24T13:56:31;435.20;2355.20
56123;DHT22;42426;46.104;19.656;2023-04-24T13:58:57;435.20;2355.20
56123;DHT22;42426;46.104;19.656;2023-04-24T14:01:23;435.30;2355.20
56123;DHT22;42426;46.104;19.656;2023-04-24T14:03:52;435.30;2355.20
56123;DHT22;42426;46.104;19.656;2023-04-24T14:06:21;435.30;2355.20
56123;DHT22;42426;46.104;19.656;2023-04-24T14:08:50;435.30;2355.20
56123;DHT22;42426;46.104;19.656;2023-04-24T14:11:16;435.40;2355.20
56123;DHT22;42426;46.104;19.656;2023-04-24T14:13:42;435.50;2355.20
56123;DHT22;42426;46.104;19.656;2023-04-24T14:16:09;435.50;2355.20
56123;DHT22;42426;46.104;19.656;2023-04-24T14:18:35;435.60;2355.20
56123;DHT22;42426;46.104;19.656;2023-04-24T14:21:02;435.70;2355.20
56123;DHT22;42426;46.104;19.656;2023-04-24T14:23:28;435.70;2355.20
56123;DHT22;42426;46.104;19.656;2023-04-24T14:25:54;435.90;2355.20
56123;DHT22;42426;46.104;19.656;2023-04-24T14:28:20;435.80;2355.20
56123;DHT22;42426;46.104;19.656;2023-04-24T14:30:47;435.90;2355.20
56123;DHT22;42426;46.104;19.656;2023-04-24T14:33:13;435.90;2355.20
56123;DHT22;42426;46.104;19.656;2023-04-24T14:35:40;436.00;2355.20
56123;DHT22;42426;46.104;19.656;2023-04-24T14:38:07;436.00;2355.20
56123;DHT22;42426;46.104;19.656;2023-04-24T14:40:33;436.10;2355.20
56123;DHT22;42426;46.104;19.656;2023-04-24T14:42:59;436.10;2355.20
56123;DHT22;42426;46.104;19.656;2023-04-24T14:45:25;460.80;2380.80
56123;DHT22;42426;46.104;19.656;2023-04-24T14:47:52;460.80;2380.80
56123;DHT22;42426;46.104;19.656;2023-04-24T14:50:18;460.80;2380.80
56123;DHT22;42426;46.104;19.656;2023-04-24T14:52:44;460.80;2380.80
56123;DHT22;42426;46.104;19.656;2023-04-24T14:55:09;460.80;2355.20
56123;DHT22;42426;46.104;19.656;2023-04-24T14:57:35;460.80;2355.20
56123;DHT22;42426;46.104;19.656;2023-04-24T15:00:04;460.80;2355.20
56123;DHT22;42426;46.104;19.656;2023-04-24T15:02:32;436.10;2329.60
56123;DHT22;42426;46.104;19.656;2023-04-24T15:04:58;436.10;2329.60
56123;DHT22;42426;46.104;19.656;2023-04-24T15:07:24;436.10;2329.60
56123;DHT22;42426;46.104;19.656;2023-04-24T15:09:51;436.10;2329.60
56123;DHT22;42426;46.104;19.656;2023-04-24T15:12:17;435.90;2329.60
56123;DHT22;42426;46.104;19.656;2023-04-24T15:14:42;435.90;2329.60
56123;DHT22;42426;46.104;19.656;2023-04-24T15:17:08;435.90;2304.00
56123;DHT22;42426;46.104;19.656;2023-04-24T15:19:35;435.80;2329.60
56123;DHT22;42426;46.104;19.656;2023-04-24T15:22:01;435.80;2329.60
56123;DHT22;42426;46.104;19.656;2023-04-24T15:24:28;435.80;2329.60
56123;DHT22;42426;46.104;19.656;2023-04-24T15:26:53;435.70;2355.20
56123;DHT22;42426;46.104;19.656;2023-04-24T15:29:19;435.70;2355.20
56123;DHT22;42426;46.104;19.656;2023-04-24T15:31:45;435.70;2355.20
56123;DHT22;42426;46.104;19.656;2023-04-24T15:34:11;435.70;2355.20
56123;DHT22;42426;46.104;19.656;2023-04-24T15:36:36;435.70;2355.20
56123;DHT22;42426;46.104;19.656;2023-04-24T15:39:02;435.70;2355.20
56123;DHT22;42426;46.104;19.656;2023-04-24T15:41:28;435.70;2355.20
56123;DHT22;42426;46.104;19.656;2023-04-24T15:43:54;435.60;2355.20
56123;DHT22;42426;46.104;19.656;2023-04-24T15:46:21;435.60;2355.20
56123;DHT22;42426;46.104;19.656;2023-04-24T15:48:46;435.60;2355.20
56123;DHT22;42426;46.104;19.656;2023-04-24T15:51:12;435.60;2355.20
56123;DHT22;42426;46.104;19.656;2023-04-24T15:53:38;435.50;2355.20
56123;DHT22;42426;46.104;19.656;2023-04-24T15:56:04;435.50;2355.20
56123;DHT22;42426;46.104;19.656;2023-04-24T15:58:30;435.40;2355.20
56123;DHT22;42426;46.104;19.656;2023-04-24T16:00:57;435.40;2355.20
56123;DHT22;42426;46.104;19.656;2023-04-24T16:03:23;435.40;2355.20
56123;DHT22;42426;46.104;19.656;2023-04-24T16:05:52;435.40;2355.20
56123;DHT22;42426;46.104;19.656;2023-04-24T16:08:22;435.40;2355.20
56123;DHT22;42426;46.104;19.656;2023-04-24T16:10:48;435.30;2355.20
56123;DHT22;42426;46.104;19.656;2023-04-24T16:13:14;435.30;2355.20
56123;DHT22;42426;46.104;19.656;2023-04-24T16:15:43;435.30;2355.20
56123;DHT22;42426;46.104;19.656;2023-04-24T16:18:09;435.30;2355.20
56123;DHT22;42426;46.104;19.656;2023-04-24T16:20:35;435.30;2355.20
56123;DHT22;42426;46.104;19.656;2023-04-24T16:23:01;435.30;2355.20
56123;DHT22;42426;46.104;19.656;2023-04-24T16:25:27;435.30;2355.20
56123;DHT22;42426;46.104;19.656;2023-04-24T16:27:53;435.30;2355.20
56123;DHT22;42426;46.104;19.656;2023-04-24T16:30:19;435.30;2355.20
56123;DHT22;42426;46.104;19.656;2023-04-24T16:32:45;435.30;2355.20
56123;DHT22;42426;46.104;19.656;2023-04-24T16:35:11;435.20;2355.20
56123;DHT22;42426;46.104;19.656;2023-04-24T16:37:37;435.20;2355.20
56123;DHT22;42426;46.104;19.656;2023-04-24T16:40:03;410.50;2355.20
56123;DHT22;42426;46.104;19.656;2023-04-24T16:42:35;410.50;2355.20
56123;DHT22;42426;46.104;19.656;2023-04-24T16:45:01;410.50;2355.20
56123;DHT22;42426;46.104;19.656;2023-04-24T16:47:27;410.50;2355.20
56123;DHT22;42426;46.104;19.656;2023-04-24T16:49:53;410.40;2355.20
56123;DHT22;42426;46.104;19.656;2023-04-24T16:52:19;410.40;2355.20
56123;DHT22;42426;46.104;19.656;2023-04-24T16:54:44;410.40;2355.20
56123;DHT22;42426;46.104;19.656;2023-04-24T16:57:10;410.40;2355.20
56123;DHT22;42426;46.104;19.656;2023-04-24T16:59:37;410.40;2355.20
56123;DHT22;42426;46.104;19.656;2023-04-24T17:02:03;410.50;2355.20
56123;DHT22;42426;46.104;19.656;2023-04-24T17:04:29;410.30;2355.20
56123;DHT22;42426;46.104;19.656;2023-04-24T17:06:55;410.40;2355.20
56123;DHT22;42426;46.104;19.656;2023-04-24T17:09:21;410.30;2355.20
56123;DHT22;42426;46.104;19.656;2023-04-24T17:11:47;410.30;2355.20
56123;DHT22;42426;46.104;19.656;2023-04-24T17:14:12;410.30;2355.20
56123;DHT22;42426;46.104;19.656;2023-04-24T17:16:38;410.30;2355.20
56123;DHT22;42426;46.104;19.656;2023-04-24T17:19:05;410.30;2355.20
56123;DHT22;42426;46.104;19.656;2023-04-24T17:21:31;410.30;2355.20